sensor_id;sensor_type;location;lat;lon;timestamp;P1;durP1;ratioP1;P2;durP2;ratioP2
48703;SDS011;34502;51.296;16.918;2022-11-20T08:25:20;57.58;;;29.95;;
48703;SDS011;34502;51.296;16.918;2022-11-20T08:27:46;54.55;;;30.02;;
48703;SDS011;34502;51.296;16.918;2022-11-20T08:30:12;55.28;;;29.35;;
48703;SDS011;34502;51.296;16.918;2022-11-20T08:32:39;59.60;;;30.77;;
48703;SDS011;34502;51.296;16.918;2022-11-20T08:35:05;53.33;;;29.00;;
48703;SDS011;34502;51.296;16.918;2022-11-20T08:37:31;57.50;;;30.23;;
48703;SDS011;34502;51.296;16.918;2022-11-20T08:39:57;53.08;;;29.17;;
48703;SDS011;34502;51.296;16.918;2022-11-20T08:42:23;57.10;;;28.08;;
48703;SDS011;34502;51.296;16.918;2022-11-20T08:44:51;51.92;;;27.85;;
48703;SDS011;34502;51.296;16.918;2022-11-20T08:47:17;54.95;;;28.30;;
48703;SDS011;34502;51.296;16.918;2022-11-20T08:49:43;50.13;;;26.80;;
48703;SDS011;34502;51.296;16.918;2022-11-20T08:52:09;51.22;;;27.08;;
48703;SDS011;34502;51.296;16.918;2022-11-20T08:54:35;56.00;;;28.38;;
48703;SDS011;34502;51.296;16.918;2022-11-20T08:57:01;54.38;;;30.15;;
48703;SDS011;34502;51.296;16.918;2022-11-20T08:59:28;61.85;;;31.02;;
48703;SDS011;34502;51.296;16.918;2022-11-20T09:01:55;50.88;;;29.25;;
48703;SDS011;34502;51.296;16.918;2022-11-20T09:04:21;61.38;;;31.15;;
48703;SDS011;34502;51.296;16.918;2022-11-20T09:06:48;60.60;;;32.97;;
48703;SDS011;34502;51.296;16.918;2022-11-20T09:09:16;58.38;;;30.02;;
48703;SDS011;34502;51.296;16.918;2022-11-20T09:11:43;54.58;;;29.48;;
48703;SDS011;34502;51.296;16.918;2022-11-20T09:14:09;57.40;;;31.25;;
48703;SDS011;34502;51.296;16.918;2022-11-20T09:16:35;57.42;;;32.63;;
48703;SDS011;34502;51.296;16.918;2022-11-20T09:19:02;62.63;;;32.97;;
48703;SDS011;34502;51.296;16.918;2022-11-20T09:21:28;56.00;;;32.22;;
48703;SDS011;34502;51.296;16.918;2022-11-20T09:23:54;59.35;;;31.50;;
48703;SDS011;34502;51.296;16.918;2022-11-20T09:26:20;54.03;;;31.08;;
48703;SDS011;34502;51.296;16.918;2022-11-20T09:28:46;64.57;;;34.65;;
48703;SDS011;34502;51.296;16.918;2022-11-20T09:31:22;67.97;;;35.70;;
48703;SDS011;34502;51.296;16.918;2022-11-20T09:33:50;65.72;;;35.20;;
48703;SDS011;34502;51.296;16.918;2022-11-20T09:36:20;64.25;;;34.38;;
48703;SDS011;34502;51.296;16.918;2022-11-20T09:38:46;59.20;;;34.10;;
48703;SDS011;34502;51.296;16.918;2022-11-20T09:46:47;65.93;;;34.95;;
48703;SDS011;34502;51.296;16.918;2022-11-20T09:55:00;59.03;;;34.40;;
48703;SDS011;34502;51.296;16.918;2022-11-20T09:57:34;56.40;;;32.25;;
48703;SDS011;34502;51.296;16.918;2022-11-20T10:00:05;57.35;;;33.00;;
48703;SDS011;34502;51.296;16.918;2022-11-20T10:02:47;58.13;;;34.20;;
48703;SDS011;34502;51.296;16.918;2022-11-20T10:21:41;52.20;;;30.77;;
48703;SDS011;34502;51.296;16.918;2022-11-20T10:30:01;48.70;;;30.45;;
48703;SDS011;34502;51.296;16.918;2022-11-20T10:32:36;48.10;;;31.25;;
48703;SDS011;34502;51.296;16.918;2022-11-20T10:35:06;51.78;;;32.45;;
48703;SDS011;34502;51.296;16.918;2022-11-20T10:37:40;50.58;;;30.67;;
48703;SDS011;34502;51.296;16.918;2022-11-20T10:40:18;48.80;;;30.77;;
48703;SDS011;34502;51.296;16.918;2022-11-20T10:42:59;51.60;;;30.20;;
48703;SDS011;34502;51.296;16.918;2022-11-20T10:48:33;53.25;;;30.02;;
48703;SDS011;34502;51.296;16.918;2022-11-20T11:02:20;56.25;;;33.50;;
48703;SDS011;34502;51.296;16.918;2022-11-20T11:04:52;53.45;;;30.35;;
48703;SDS011;34502;51.296;16.918;2022-11-20T11:09:54;55.97;;;32.72;;
48703;SDS011;34502;51.296;16.918;2022-11-20T11:12:22;59.42;;;33.83;;
48703;SDS011;34502;51.296;16.918;2022-11-20T11:14:50;48.47;;;29.08;;
48703;SDS011;34502;51.296;16.918;2022-11-20T11:17:22;39.92;;;23.33;;
48703;SDS011;34502;51.296;16.918;2022-11-20T11:20:03;48.15;;;26.20;;
48703;SDS011;34502;51.296;16.918;2022-11-20T11:22:42;45.92;;;26.75;;
48703;SDS011;34502;51.296;16.918;2022-11-20T11:27:53;41.63;;;26.02;;
48703;SDS011;34502;51.296;16.918;2022-11-20T11:30:22;42.58;;;25.77;;
48703;SDS011;34502;51.296;16.918;2022-11-20T11:32:49;38.33;;;23.52;;
48703;SDS011;34502;51.296;16.918;2022-11-20T11:35:24;36.28;;;21.80;;
48703;SDS011;34502;51.296;16.918;2022-11-20T11:37:53;38.78;;;22.92;;
48703;SDS011;34502;51.296;16.918;2022-11-20T11:40:26;37.42;;;21.48;;
48703;SDS011;34502;51.296;16.918;2022-11-20T11:42:59;31.58;;;20.33;;
48703;SDS011;34502;51.296;16.918;2022-11-20T11:45:29;34.03;;;20.80;;
48703;SDS011;34502;51.296;16.918;2022-11-20T11:47:56;33.97;;;21.02;;
48703;SDS011;34502;51.296;16.918;2022-11-20T11:50:27;31.30;;;19.30;;
48703;SDS011;34502;51.296;16.918;2022-11-20T11:56:08;32.60;;;20.38;;
48703;SDS011;34502;51.296;16.918;2022-11-20T12:06:52;29.60;;;17.42;;
48703;SDS011;34502;51.296;16.918;2022-11-20T12:09:42;32.33;;;19.70;;
48703;SDS011;34502;51.296;16.918;2022-11-20T12:12:12;30.50;;;18.88;;
48703;SDS011;34502;51.296;16.918;2022-11-20T12:14:52;31.70;;;18.95;;
48703;SDS011;34502;51.296;16.918;2022-11-20T12:17:20;33.05;;;20.67;;
48703;SDS011;34502;51.296;16.918;2022-11-20T12:19:47;36.72;;;20.95;;
48703;SDS011;34502;51.296;16.918;2022-11-20T12:30:20;36.58;;;21.58;;
48703;SDS011;34502;51.296;16.918;2022-11-20T12:38:28;33.67;;;20.65;;
48703;SDS011;34502;51.296;16.918;2022-11-20T12:41:22;39.35;;;21.33;;
48703;SDS011;34502;51.296;16.918;2022-11-20T12:44:34;34.63;;;21.10;;
48703;SDS011;34502;51.296;16.918;2022-11-20T13:00:58;35.88;;;20.90;;
48703;SDS011;34502;51.296;16.918;2022-11-20T13:04:09;34.35;;;21.92;;
48703;SDS011;34502;51.296;16.918;2022-11-20T13:07:03;33.80;;;20.40;;
48703;SDS011;34502;51.296;16.918;2022-11-20T13:09:32;32.13;;;19.58;;
48703;SDS011;34502;51.296;16.918;2022-11-20T13:14:47;32.15;;;19.83;;
48703;SDS011;34502;51.296;16.918;2022-11-20T13:20:04;30.60;;;20.02;;
48703;SDS011;34502;51.296;16.918;2022-11-20T13:22:45;33.83;;;20.67;;
48703;SDS011;34502;51.296;16.918;2022-11-20T13:25:31;31.60;;;20.00;;
48703;SDS011;34502;51.296;16.918;2022-11-20T13:28:00;30.50;;;19.02;;
48703;SDS011;34502;51.296;16.918;2022-11-20T13:30:50;40.13;;;23.08;;
48703;SDS011;34502;51.296;16.918;2022-11-20T13:33:23;40.00;;;23.65;;
48703;SDS011;34502;51.296;16.918;2022-11-20T13:38:47;35.53;;;21.40;;
48703;SDS011;34502;51.296;16.918;2022-11-20T13:43:54;37.90;;;22.27;;
48703;SDS011;34502;51.296;16.918;2022-11-20T13:46:34;36.15;;;21.92;;
48703;SDS011;34502;51.296;16.918;2022-11-20T13:49:06;38.92;;;23.27;;
48703;SDS011;34502;51.296;16.918;2022-11-20T13:51:37;41.35;;;23.65;;
48703;SDS011;34502;51.296;16.918;2022-11-20T14:02:35;36.72;;;22.73;;
48703;SDS011;34502;51.296;16.918;2022-11-20T14:05:02;40.55;;;23.02;;
48703;SDS011;34502;51.296;16.918;2022-11-20T14:07:35;38.92;;;23.63;;
48703;SDS011;34502;51.296;16.918;2022-11-20T14:10:03;36.53;;;22.88;;
48703;SDS011;34502;51.296;16.918;2022-11-20T14:12:31;35.25;;;21.48;;
48703;SDS011;34502;51.296;16.918;2022-11-20T14:14:59;36.63;;;22.25;;
48703;SDS011;34502;51.296;16.918;2022-11-20T14:20:04;39.25;;;23.58;;
48703;SDS011;34502;51.296;16.918;2022-11-20T14:22:32;36.03;;;23.25;;
48703;SDS011;34502;51.296;16.918;2022-11-20T14:25:03;42.75;;;24.38;;
48703;SDS011;34502;51.296;16.918;2022-11-20T14:27:44;42.63;;;22.88;;
48703;SDS011;34502;51.296;16.918;2022-11-20T14:30:21;41.55;;;22.95;;
48703;SDS011;34502;51.296;16.918;2022-11-20T14:33:04;42.28;;;23.55;;
48703;SDS011;34502;51.296;16.918;2022-11-20T14:35:34;39.53;;;23.67;;
48703;SDS011;34502;51.296;16.918;2022-11-20T14:38:02;37.53;;;22.88;;
48703;SDS011;34502;51.296;16.918;2022-11-20T14:40:29;41.97;;;24.88;;
48703;SDS011;34502;51.296;16.918;2022-11-20T14:42:58;43.15;;;24.65;;
48703;SDS011;34502;51.296;16.918;2022-11-20T14:45:25;39.15;;;24.10;;
48703;SDS011;34502;51.296;16.918;2022-11-20T14:47:55;68.65;;;44.65;;
48703;SDS011;34502;51.296;16.918;2022-11-20T14:50:23;49.22;;;28.05;;
48703;SDS011;34502;51.296;16.918;2022-11-20T14:55:32;47.38;;;27.73;;
48703;SDS011;34502;51.296;16.918;2022-11-20T14:58:06;50.83;;;28.27;;
48703;SDS011;34502;51.296;16.918;2022-11-20T15:01:02;54.90;;;30.05;;
48703;SDS011;34502;51.296;16.918;2022-11-20T15:03:33;53.85;;;30.20;;
48703;SDS011;34502;51.296;16.918;2022-11-20T15:06:04;56.92;;;30.67;;
48703;SDS011;34502;51.296;16.918;2022-11-20T15:08:31;57.15;;;30.90;;
48703;SDS011;34502;51.296;16.918;2022-11-20T15:10:58;59.47;;;33.30;;
48703;SDS011;34502;51.296;16.918;2022-11-20T15:13:25;63.33;;;33.72;;
48703;SDS011;34502;51.296;16.918;2022-11-20T15:15:57;60.05;;;32.72;;
48703;SDS011;34502;51.296;16.918;2022-11-20T15:18:28;59.88;;;33.00;;
48703;SDS011;34502;51.296;16.918;2022-11-20T15:21:03;59.40;;;33.05;;
48703;SDS011;34502;51.296;16.918;2022-11-20T15:23:34;67.22;;;35.70;;
48703;SDS011;34502;51.296;16.918;2022-11-20T15:26:00;70.70;;;36.80;;
48703;SDS011;34502;51.296;16.918;2022-11-20T15:28:33;65.95;;;34.05;;
48703;SDS011;34502;51.296;16.918;2022-11-20T15:31:08;60.10;;;32.65;;
48703;SDS011;34502;51.296;16.918;2022-11-20T15:33:39;62.47;;;35.58;;
48703;SDS011;34502;51.296;16.918;2022-11-20T15:36:05;73.30;;;38.13;;
48703;SDS011;34502;51.296;16.918;2022-11-20T15:38:31;61.75;;;32.53;;
48703;SDS011;34502;51.296;16.918;2022-11-20T15:40:57;60.88;;;33.67;;
48703;SDS011;34502;51.296;16.918;2022-11-20T15:43:23;75.55;;;41.17;;
48703;SDS011;34502;51.296;16.918;2022-11-20T15:46:00;89.13;;;43.88;;
48703;SDS011;34502;51.296;16.918;2022-11-20T15:48:31;106.60;;;51.05;;
48703;SDS011;34502;51.296;16.918;2022-11-20T15:53:43;84.07;;;43.65;;
48703;SDS011;34502;51.296;16.918;2022-11-20T15:56:12;74.55;;;40.95;;
48703;SDS011;34502;51.296;16.918;2022-11-20T15:58:40;80.25;;;43.92;;
48703;SDS011;34502;51.296;16.918;2022-11-20T16:01:13;93.35;;;48.72;;
48703;SDS011;34502;51.296;16.918;2022-11-20T16:03:41;80.45;;;41.70;;
48703;SDS011;34502;51.296;16.918;2022-11-20T16:06:07;79.75;;;41.30;;
48703;SDS011;34502;51.296;16.918;2022-11-20T16:08:34;73.50;;;39.13;;
48703;SDS011;34502;51.296;16.918;2022-11-20T16:11:00;77.05;;;38.15;;
48703;SDS011;34502;51.296;16.918;2022-11-20T16:13:26;67.82;;;33.45;;
48703;SDS011;34502;51.296;16.918;2022-11-20T16:16:17;60.53;;;33.10;;
48703;SDS011;34502;51.296;16.918;2022-11-20T16:18:46;62.10;;;32.58;;
48703;SDS011;34502;51.296;16.918;2022-11-20T16:21:13;67.22;;;33.63;;
48703;SDS011;34502;51.296;16.918;2022-11-20T16:23:39;65.07;;;32.97;;
48703;SDS011;34502;51.296;16.918;2022-11-20T16:26:10;63.17;;;32.22;;
48703;SDS011;34502;51.296;16.918;2022-11-20T16:28:38;59.42;;;31.88;;
48703;SDS011;34502;51.296;16.918;2022-11-20T16:31:11;62.47;;;31.45;;
48703;SDS011;34502;51.296;16.918;2022-11-20T16:33:39;60.08;;;31.60;;
48703;SDS011;34502;51.296;16.918;2022-11-20T16:36:09;55.72;;;30.35;;
48703;SDS011;34502;51.296;16.918;2022-11-20T16:38:37;52.17;;;28.52;;
48703;SDS011;34502;51.296;16.918;2022-11-20T16:41:04;53.75;;;28.98;;
48703;SDS011;34502;51.296;16.918;2022-11-20T16:43:42;55.90;;;29.48;;
48703;SDS011;34502;51.296;16.918;2022-11-20T16:46:17;55.70;;;29.45;;
48703;SDS011;34502;51.296;16.918;2022-11-20T16:48:44;56.53;;;31.38;;
48703;SDS011;34502;51.296;16.918;2022-11-20T16:51:17;54.53;;;29.83;;
48703;SDS011;34502;51.296;16.918;2022-11-20T16:53:43;63.72;;;32.70;;
48703;SDS011;34502;51.296;16.918;2022-11-20T16:56:14;63.80;;;34.53;;
48703;SDS011;34502;51.296;16.918;2022-11-20T16:58:42;68.45;;;33.80;;
48703;SDS011;34502;51.296;16.918;2022-11-20T17:01:10;63.05;;;34.40;;
48703;SDS011;34502;51.296;16.918;2022-11-20T17:03:38;61.55;;;34.75;;
48703;SDS011;34502;51.296;16.918;2022-11-20T17:06:21;83.85;;;41.88;;
48703;SDS011;34502;51.296;16.918;2022-11-20T17:08:49;82.40;;;41.83;;
48703;SDS011;34502;51.296;16.918;2022-11-20T17:11:17;69.38;;;36.53;;
48703;SDS011;34502;51.296;16.918;2022-11-20T17:13:44;108.45;;;53.15;;
48703;SDS011;34502;51.296;16.918;2022-11-20T17:16:12;130.55;;;68.72;;
48703;SDS011;34502;51.296;16.918;2022-11-20T17:18:42;122.63;;;61.73;;
48703;SDS011;34502;51.296;16.918;2022-11-20T17:21:09;115.00;;;57.20;;
48703;SDS011;34502;51.296;16.918;2022-11-20T17:23:38;120.63;;;61.40;;
48703;SDS011;34502;51.296;16.918;2022-11-20T17:26:07;119.03;;;57.80;;
48703;SDS011;34502;51.296;16.918;2022-11-20T17:28:35;91.07;;;45.20;;
48703;SDS011;34502;51.296;16.918;2022-11-20T17:31:03;74.68;;;38.85;;
48703;SDS011;34502;51.296;16.918;2022-11-20T17:33:34;64.05;;;33.92;;
48703;SDS011;34502;51.296;16.918;2022-11-20T17:36:02;61.83;;;32.97;;
48703;SDS011;34502;51.296;16.918;2022-11-20T17:38:29;63.13;;;32.90;;
48703;SDS011;34502;51.296;16.918;2022-11-20T17:41:05;64.65;;;33.65;;
48703;SDS011;34502;51.296;16.918;2022-11-20T17:43:32;58.88;;;30.27;;
48703;SDS011;34502;51.296;16.918;2022-11-20T17:46:03;57.42;;;30.42;;
48703;SDS011;34502;51.296;16.918;2022-11-20T17:48:36;57.10;;;29.75;;
48703;SDS011;34502;51.296;16.918;2022-11-20T17:51:03;54.85;;;31.35;;
48703;SDS011;34502;51.296;16.918;2022-11-20T17:53:34;55.17;;;30.63;;
48703;SDS011;34502;51.296;16.918;2022-11-20T17:56:01;59.40;;;31.80;;
48703;SDS011;34502;51.296;16.918;2022-11-20T17:58:47;64.47;;;33.75;;
48703;SDS011;34502;51.296;16.918;2022-11-20T18:01:14;58.95;;;30.27;;
48703;SDS011;34502;51.296;16.918;2022-11-20T18:03:41;43.67;;;27.08;;
48703;SDS011;34502;51.296;16.918;2022-11-20T18:06:11;43.53;;;24.25;;
48703;SDS011;34502;51.296;16.918;2022-11-20T18:08:39;44.15;;;25.23;;
48703;SDS011;34502;51.296;16.918;2022-11-20T18:11:13;42.90;;;25.25;;
48703;SDS011;34502;51.296;16.918;2022-11-20T18:13:40;52.05;;;27.77;;
48703;SDS011;34502;51.296;16.918;2022-11-20T18:16:27;54.78;;;27.48;;
48703;SDS011;34502;51.296;16.918;2022-11-20T18:18:55;52.20;;;29.77;;
48703;SDS011;34502;51.296;16.918;2022-11-20T18:21:22;50.22;;;29.02;;
48703;SDS011;34502;51.296;16.918;2022-11-20T18:23:49;58.67;;;32.85;;
48703;SDS011;34502;51.296;16.918;2022-11-20T18:26:15;57.58;;;33.78;;
48703;SDS011;34502;51.296;16.918;2022-11-20T18:28:42;70.90;;;38.25;;
48703;SDS011;34502;51.296;16.918;2022-11-20T18:31:09;63.40;;;35.70;;
48703;SDS011;34502;51.296;16.918;2022-11-20T18:33:35;78.45;;;42.10;;
48703;SDS011;34502;51.296;16.918;2022-11-20T18:36:15;80.10;;;43.80;;
48703;SDS011;34502;51.296;16.918;2022-11-20T18:38:43;87.22;;;47.97;;
48703;SDS011;34502;51.296;16.918;2022-11-20T18:41:10;103.40;;;55.85;;
48703;SDS011;34502;51.296;16.918;2022-11-20T18:44:00;152.07;;;73.20;;
48703;SDS011;34502;51.296;16.918;2022-11-20T18:46:45;167.15;;;76.53;;
48703;SDS011;34502;51.296;16.918;2022-11-20T18:49:12;150.30;;;71.18;;
48703;SDS011;34502;51.296;16.918;2022-11-20T18:51:38;137.57;;;68.30;;
48703;SDS011;34502;51.296;16.918;2022-11-20T18:54:05;138.55;;;65.35;;
48703;SDS011;34502;51.296;16.918;2022-11-20T18:56:32;147.50;;;66.57;;
48703;SDS011;34502;51.296;16.918;2022-11-20T18:59:04;159.45;;;69.10;;
48703;SDS011;34502;51.296;16.918;2022-11-20T19:01:32;180.52;;;78.78;;
48703;SDS011;34502;51.296;16.918;2022-11-20T19:03:58;153.82;;;72.18;;
48703;SDS011;34502;51.296;16.918;2022-11-20T19:06:25;145.35;;;69.93;;
48703;SDS011;34502;51.296;16.918;2022-11-20T19:08:52;134.13;;;61.85;;
48703;SDS011;34502;51.296;16.918;2022-11-20T19:11:18;118.80;;;55.90;;
48703;SDS011;34502;51.296;16.918;2022-11-20T19:13:44;141.65;;;64.85;;
48703;SDS011;34502;51.296;16.918;2022-11-20T19:16:17;129.48;;;59.97;;
48703;SDS011;34502;51.296;16.918;2022-11-20T19:18:46;115.97;;;55.42;;
48703;SDS011;34502;51.296;16.918;2022-11-20T19:21:14;66.88;;;35.63;;
48703;SDS011;34502;51.296;16.918;2022-11-20T19:23:48;66.15;;;33.22;;
48703;SDS011;34502;51.296;16.918;2022-11-20T19:26:15;105.53;;;53.58;;
48703;SDS011;34502;51.296;16.918;2022-11-20T19:28:41;72.45;;;41.55;;
48703;SDS011;34502;51.296;16.918;2022-11-20T19:31:09;69.82;;;36.55;;
48703;SDS011;34502;51.296;16.918;2022-11-20T19:33:46;47.80;;;26.95;;
48703;SDS011;34502;51.296;16.918;2022-11-20T19:36:20;49.38;;;26.42;;
48703;SDS011;34502;51.296;16.918;2022-11-20T19:38:48;42.25;;;22.55;;
48703;SDS011;34502;51.296;16.918;2022-11-20T19:41:16;43.78;;;24.35;;
48703;SDS011;34502;51.296;16.918;2022-11-20T19:43:43;39.85;;;23.52;;
48703;SDS011;34502;51.296;16.918;2022-11-20T19:46:13;36.10;;;22.30;;
48703;SDS011;34502;51.296;16.918;2022-11-20T19:48:41;42.20;;;22.27;;
48703;SDS011;34502;51.296;16.918;2022-11-20T19:51:08;39.53;;;21.88;;
48703;SDS011;34502;51.296;16.918;2022-11-20T19:53:35;43.53;;;24.10;;
48703;SDS011;34502;51.296;16.918;2022-11-20T19:56:02;39.97;;;22.52;;
48703;SDS011;34502;51.296;16.918;2022-11-20T19:58:28;42.10;;;24.08;;
48703;SDS011;34502;51.296;16.918;2022-11-20T20:00:54;37.92;;;22.15;;
48703;SDS011;34502;51.296;16.918;2022-11-20T20:03:21;41.67;;;23.75;;
48703;SDS011;34502;51.296;16.918;2022-11-20T20:05:47;39.75;;;22.45;;
48703;SDS011;34502;51.296;16.918;2022-11-20T20:08:13;42.80;;;23.77;;
48703;SDS011;34502;51.296;16.918;2022-11-20T20:10:40;44.97;;;25.15;;
48703;SDS011;34502;51.296;16.918;2022-11-20T20:13:06;43.50;;;22.92;;
48703;SDS011;34502;51.296;16.918;2022-11-20T20:15:32;41.28;;;21.73;;
48703;SDS011;34502;51.296;16.918;2022-11-20T20:17:58;64.72;;;33.38;;
48703;SDS011;34502;51.296;16.918;2022-11-20T20:20:24;59.22;;;32.40;;
48703;SDS011;34502;51.296;16.918;2022-11-20T20:22:51;49.78;;;27.23;;
48703;SDS011;34502;51.296;16.918;2022-11-20T20:25:17;48.92;;;25.50;;
48703;SDS011;34502;51.296;16.918;2022-11-20T20:27:43;41.50;;;23.05;;
48703;SDS011;34502;51.296;16.918;2022-11-20T20:30:09;41.95;;;23.67;;
48703;SDS011;34502;51.296;16.918;2022-11-20T20:32:36;41.70;;;21.48;;
48703;SDS011;34502;51.296;16.918;2022-11-20T20:35:02;44.00;;;23.88;;
48703;SDS011;34502;51.296;16.918;2022-11-20T20:37:29;37.08;;;21.65;;
48703;SDS011;34502;51.296;16.918;2022-11-20T20:39:55;39.63;;;22.27;;
48703;SDS011;34502;51.296;16.918;2022-11-20T20:42:21;41.05;;;23.58;;
48703;SDS011;34502;51.296;16.918;2022-11-20T20:44:47;46.85;;;25.33;;
48703;SDS011;34502;51.296;16.918;2022-11-20T20:47:32;45.58;;;25.13;;
48703;SDS011;34502;51.296;16.918;2022-11-20T20:50:01;47.63;;;25.50;;
48703;SDS011;34502;51.296;16.918;2022-11-20T20:52:28;49.40;;;27.42;;
48703;SDS011;34502;51.296;16.918;2022-11-20T20:54:54;51.28;;;26.98;;
48703;SDS011;34502;51.296;16.918;2022-11-20T20:57:21;54.22;;;28.13;;
48703;SDS011;34502;51.296;16.918;2022-11-20T20:59:50;56.97;;;31.02;;
48703;SDS011;34502;51.296;16.918;2022-11-20T21:02:17;62.08;;;33.85;;
48703;SDS011;34502;51.296;16.918;2022-11-20T21:04:47;62.65;;;33.42;;
48703;SDS011;34502;51.296;16.918;2022-11-20T21:07:13;70.03;;;37.78;;
48703;SDS011;34502;51.296;16.918;2022-11-20T21:09:40;71.47;;;36.97;;
48703;SDS011;34502;51.296;16.918;2022-11-20T21:12:07;75.95;;;42.38;;
48703;SDS011;34502;51.296;16.918;2022-11-20T21:14:35;88.15;;;47.90;;
48703;SDS011;34502;51.296;16.918;2022-11-20T21:17:01;86.43;;;46.15;;
48703;SDS011;34502;51.296;16.918;2022-11-20T21:19:27;81.78;;;43.13;;
48703;SDS011;34502;51.296;16.918;2022-11-20T21:21:53;83.28;;;45.38;;
48703;SDS011;34502;51.296;16.918;2022-11-20T21:24:22;78.32;;;41.83;;
48703;SDS011;34502;51.296;16.918;2022-11-20T21:26:56;80.70;;;40.88;;
48703;SDS011;34502;51.296;16.918;2022-11-20T21:29:24;70.85;;;38.55;;
48703;SDS011;34502;51.296;16.918;2022-11-20T21:31:51;75.05;;;39.85;;
48703;SDS011;34502;51.296;16.918;2022-11-20T21:34:18;71.28;;;37.10;;
48703;SDS011;34502;51.296;16.918;2022-11-20T21:36:44;70.80;;;38.05;;
48703;SDS011;34502;51.296;16.918;2022-11-20T21:39:10;69.70;;;36.17;;
48703;SDS011;34502;51.296;16.918;2022-11-20T21:41:37;72.38;;;41.28;;
48703;SDS011;34502;51.296;16.918;2022-11-20T21:44:04;73.72;;;39.08;;
48703;SDS011;34502;51.296;16.918;2022-11-20T21:46:32;86.72;;;41.28;;
48703;SDS011;34502;51.296;16.918;2022-11-20T21:49:02;118.78;;;51.22;;
48703;SDS011;34502;51.296;16.918;2022-11-20T21:51:28;141.68;;;60.08;;
48703;SDS011;34502;51.296;16.918;2022-11-20T21:53:54;163.45;;;63.97;;
48703;SDS011;34502;51.296;16.918;2022-11-20T21:56:22;141.00;;;55.67;;
48703;SDS011;34502;51.296;16.918;2022-11-20T21:58:48;129.00;;;53.47;;
48703;SDS011;34502;51.296;16.918;2022-11-20T22:01:17;118.60;;;49.65;;
48703;SDS011;34502;51.296;16.918;2022-11-20T22:03:51;121.05;;;50.33;;
48703;SDS011;34502;51.296;16.918;2022-11-20T22:06:20;95.75;;;44.72;;
48703;SDS011;34502;51.296;16.918;2022-11-20T22:08:47;103.10;;;44.75;;
48703;SDS011;34502;51.296;16.918;2022-11-20T22:11:14;109.38;;;46.88;;
48703;SDS011;34502;51.296;16.918;2022-11-20T22:13:42;112.72;;;48.45;;
48703;SDS011;34502;51.296;16.918;2022-11-20T22:16:27;110.07;;;46.47;;
48703;SDS011;34502;51.296;16.918;2022-11-20T22:18:54;98.13;;;43.88;;
48703;SDS011;34502;51.296;16.918;2022-11-20T22:21:22;76.07;;;37.97;;
48703;SDS011;34502;51.296;16.918;2022-11-20T22:23:49;79.88;;;39.10;;
48703;SDS011;34502;51.296;16.918;2022-11-20T22:26:17;74.07;;;34.85;;
48703;SDS011;34502;51.296;16.918;2022-11-20T22:28:47;70.03;;;35.13;;
48703;SDS011;34502;51.296;16.918;2022-11-20T22:31:15;67.30;;;32.88;;
48703;SDS011;34502;51.296;16.918;2022-11-20T22:33:41;69.05;;;34.15;;
48703;SDS011;34502;51.296;16.918;2022-11-20T22:36:09;68.63;;;34.22;;
48703;SDS011;34502;51.296;16.918;2022-11-20T22:38:37;67.78;;;33.22;;
48703;SDS011;34502;51.296;16.918;2022-11-20T22:41:04;74.18;;;37.03;;
48703;SDS011;34502;51.296;16.918;2022-11-20T22:43:37;87.20;;;41.22;;
48703;SDS011;34502;51.296;16.918;2022-11-20T22:46:05;92.07;;;46.15;;
48703;SDS011;34502;51.296;16.918;2022-11-20T22:48:36;109.40;;;50.65;;
48703;SDS011;34502;51.296;16.918;2022-11-20T22:51:07;109.78;;;53.47;;
48703;SDS011;34502;51.296;16.918;2022-11-20T22:53:38;152.52;;;68.72;;
48703;SDS011;34502;51.296;16.918;2022-11-20T22:56:05;135.73;;;64.35;;
48703;SDS011;34502;51.296;16.918;2022-11-20T22:58:32;137.75;;;66.53;;
48703;SDS011;34502;51.296;16.918;2022-11-20T23:01:13;132.05;;;65.13;;
48703;SDS011;34502;51.296;16.918;2022-11-20T23:03:47;124.78;;;63.92;;
48703;SDS011;34502;51.296;16.918;2022-11-20T23:06:14;119.05;;;59.08;;
48703;SDS011;34502;51.296;16.918;2022-11-20T23:08:41;122.45;;;60.67;;
48703;SDS011;34502;51.296;16.918;2022-11-20T23:11:10;121.25;;;62.45;;
48703;SDS011;34502;51.296;16.918;2022-11-20T23:13:40;132.15;;;67.13;;
48703;SDS011;34502;51.296;16.918;2022-11-20T23:16:08;175.88;;;90.43;;
48703;SDS011;34502;51.296;16.918;2022-11-20T23:18:46;208.60;;;104.60;;
48703;SDS011;34502;51.296;16.918;2022-11-20T23:21:13;194.60;;;99.30;;
48703;SDS011;34502;51.296;16.918;2022-11-20T23:23:41;192.43;;;99.68;;
48703;SDS011;34502;51.296;16.918;2022-11-20T23:26:12;185.70;;;93.03;;
48703;SDS011;34502;51.296;16.918;2022-11-20T23:28:39;168.32;;;89.20;;
48703;SDS011;34502;51.296;16.918;2022-11-20T23:31:06;155.45;;;82.82;;
48703;SDS011;34502;51.296;16.918;2022-11-20T23:33:40;147.38;;;78.30;;
48703;SDS011;34502;51.296;16.918;2022-11-20T23:36:08;154.25;;;78.72;;
48703;SDS011;34502;51.296;16.918;2022-11-20T23:38:34;152.98;;;79.82;;
48703;SDS011;34502;51.296;16.918;2022-11-20T23:41:01;146.80;;;74.93;;
48703;SDS011;34502;51.296;16.918;2022-11-20T23:43:27;146.13;;;77.45;;
48703;SDS011;34502;51.296;16.918;2022-11-20T23:45:54;140.70;;;76.85;;
48703;SDS011;34502;51.296;16.918;2022-11-20T23:48:23;133.45;;;72.97;;
48703;SDS011;34502;51.296;16.918;2022-11-20T23:50:51;124.03;;;63.72;;
48703;SDS011;34502;51.296;16.918;2022-11-20T23:53:17;112.70;;;58.25;;
48703;SDS011;34502;51.296;16.918;2022-11-20T23:55:44;102.22;;;52.92;;
48703;SDS011;34502;51.296;16.918;2022-11-20T23:58:12;108.38;;;54.22;;
